DG8RAD-1 Weather Reports


time (UTC)temp
F
wind
direction
speed
knots
gust
knots
rain 1hr
in
rain 24hr
in
rain mn
in
humidity
%
barometer
mb
20210916111505 68 0 0.0 0.0 0.00 0.00 0.00 80 1019.0
20210916110005 69 0 0.0 0.0 0.00 0.00 0.00 79 1019.0
20210916104505 69 0 0.0 0.0 0.00 0.00 0.00 79 1019.0
20210916103005 68 0 0.0 0.0 0.00 0.00 0.00 81 1019.0
20210916101505 68 0 0.0 0.0 0.00 0.00 0.00 82 1019.0
20210916100005 68 0 0.0 0.0 0.00 0.00 0.00 82 1019.0
20210916094505 68 0 0.0 0.0 0.00 0.00 0.00 82 1019.0
20210916093005 67 0 0.0 0.0 0.00 0.00 0.00 83 1019.0
20210916091505 67 0 0.0 0.0 0.00 0.00 0.00 83 1019.0
20210916090005 67 0 0.0 0.0 0.00 0.00 0.00 83 1019.0
20210916084505 67 0 0.0 0.0 0.00 0.00 0.00 82 1019.0
20210916083005 67 0 0.0 0.0 0.00 0.00 0.00 84 1019.0
20210916081505 66 0 0.0 0.0 0.00 0.00 0.00 86 1019.0
20210916080005 66 0 0.0 0.0 0.00 0.00 0.00 85 1019.0
20210916074505 66 0 0.0 0.0 0.00 0.00 0.00 84 1019.0
20210916073005 67 0 0.0 0.0 0.00 0.00 0.00 84 1019.0
20210916071505 66 0 0.0 0.0 0.00 0.00 0.00 85 1019.0
20210916070005 65 0 0.0 0.0 0.00 0.00 0.00 87 1019.0
20210916064505 64 0 0.0 0.0 0.00 0.00 0.00 87 1019.0
20210916063005 64 0 0.0 0.0 0.00 0.00 0.00 86 1019.0
20210916061505 64 0 0.0 0.0 0.00 0.00 0.00 86 1019.0
20210916060005 63 0 0.0 0.0 0.00 0.00 0.00 86 1019.0
20210916054505 63 0 0.0 0.0 0.00 0.00 0.00 86 1019.0
20210916053005 63 0 0.0 0.0 0.00 0.00 0.00 86 1019.0
20210916051506 63 0 0.0 0.0 0.00 0.00 0.00 86 1019.0
20210916050006 63 0 0.0 0.0 0.00 0.00 0.00 86 1018.0
20210916044505 63 0 0.0 0.0 0.00 0.00 0.00 86 1018.0
20210916043005 63 0 0.0 0.0 0.00 0.00 0.00 86 1018.0
20210916041505 63 0 0.0 0.0 0.00 0.00 0.00 85 1019.0
20210916040005 63 0 0.0 0.0 0.00 0.00 0.00 85 1019.0
20210916034505 63 0 0.0 0.0 0.00 0.00 0.00 85 1019.0
20210916033005 63 0 0.0 0.0 0.00 0.00 0.00 85 1019.0
20210916031505 63 0 0.0 0.0 0.00 0.00 0.00 85 1019.0
20210916030005 63 0 0.0 0.0 0.00 0.00 0.00 85 1019.0
20210916024505 63 0 0.0 0.0 0.00 0.00 0.00 85 1019.0
20210916023005 63 0 0.0 0.0 0.00 0.00 0.00 85 1019.0
20210916021505 63 0 0.0 0.0 0.00 0.00 0.00 85 1019.0
20210916020005 63 0 0.0 0.0 0.00 0.00 0.00 85 1019.0
20210916014505 64 0 0.0 0.0 0.00 0.00 0.00 85 1019.0
20210916013005 64 0 0.0 0.0 0.00 0.00 0.00 86 1019.0
20210916011505 64 0 0.0 0.0 0.00 0.00 0.00 86 1019.0
20210916010005 64 0 0.0 0.0 0.00 0.00 0.00 87 1019.0
20210916004505 64 0 0.0 0.0 0.00 0.00 0.00 87 1019.0
20210916003005 64 0 0.0 0.0 0.00 0.00 0.00 87 1019.0
20210916001505 64 0 0.0 0.0 0.00 0.00 0.00 86 1019.0
20210916000005 64 0 0.0 0.0 0.00 0.00 0.00 86 1019.0
20210915224505 65 0 0.0 0.0 0.00 0.00 0.00 85 1019.0
20210915223005 65 0 0.0 0.0 0.00 0.00 0.00 85 1019.0
20210915221505 65 0 0.0 0.0 0.00 0.00 0.00 86 1019.0
20210915220005 65 0 0.0 0.0 0.00 0.00 0.00 86 1019.0
20210915214505 65 0 0.0 0.0 0.00 0.00 0.00 87 1019.0
20210915213005 65 0 0.0 0.0 0.00 0.00 0.00 89 1019.0
20210915211505 65 0 0.0 0.0 0.00 0.00 0.00 88 1019.0
20210915210005 65 0 0.0 0.0 0.00 0.00 0.00 84 1019.0
20210915204505 66 0 0.0 0.0 0.00 0.00 0.00 83 1019.0
20210915203005 66 0 0.0 0.0 0.00 0.00 0.00 83 1019.0
20210915201505 66 0 0.0 0.0 0.00 0.00 0.00 83 1019.0
20210915200005 67 0 0.0 0.0 0.00 0.00 0.00 83 1019.0
20210915194505 67 0 0.0 0.0 0.00 0.00 0.00 83 1019.0
20210915193005 67 0 0.0 0.0 0.00 0.00 0.00 81 1019.0
20210915191505 68 0 0.0 0.0 0.00 0.00 0.00 82 1019.0
20210915190005 68 0 0.0 0.0 0.00 0.00 0.00 81 1018.0
20210915184505 68 0 0.0 0.0 0.00 0.00 0.00 80 1018.0
20210915183005 69 0 0.0 0.0 0.00 0.00 0.00 79 1018.0
20210915181505 17 0 0.0 0.0 0.00 0.00 0.00 28 5177.7
20210915180005 69 0 0.0 0.0 0.00 0.00 0.00 77 1018.0
20210915174505 69 0 0.0 0.0 0.00 0.00 0.00 74 1019.0
20210915173005 70 0 0.0 0.0 0.00 0.00 0.00 71 1019.0
20210915171505 71 0 0.0 0.0 0.00 0.00 0.00 67 1018.0
20210915170005 71 0 0.0 0.0 0.00 0.00 0.00 66 1018.0
20210915164505 72 0 0.0 0.0 0.00 0.00 0.00 65 1018.0
20210915163005 73 0 0.0 0.0 0.00 0.00 0.00 63 1018.0
20210915161505 74 0 0.0 0.0 0.00 0.00 0.00 60 1018.0
20210915160005 78 0 0.0 0.0 0.00 0.00 0.00 51 1017.0
20210915154505 80 0 0.0 0.0 0.00 0.00 0.00 51 1017.0
20210915153005 76 0 0.0 0.0 0.00 0.00 0.00 56 1017.0
20210915151505 76 0 0.0 0.0 0.00 0.00 0.00 55 1017.0
20210915150005 79 0 0.0 0.0 0.00 0.00 0.00 52 1017.0
20210915144505 83 0 0.0 0.0 0.00 0.00 0.00 47 1018.0
20210915143005 86 0 0.0 0.0 0.00 0.00 0.00 43 1017.0
20210915141505 90 0 0.0 0.0 0.00 0.00 0.00 41 1017.0
20210915140005 79 0 0.0 0.0 0.00 0.00 0.00 58 1018.0
20210915134505 73 0 0.0 0.0 0.00 0.00 0.00 67 1018.0
20210915133005 73 0 0.0 0.0 0.00 0.00 0.00 67 1018.0
20210915131505 73 0 0.0 0.0 0.00 0.00 0.00 67 1018.0
20210915130005 72 0 0.0 0.0 0.00 0.00 0.00 70 1018.0
20210915124518 71 0 0.0 0.0 0.00 0.00 0.00 67 1018.0
20210915123005 72 0 0.0 0.0 0.00 0.00 0.00 64 1018.0
20210915121505 73 0 0.0 0.0 0.00 0.00 0.00 62 1018.0
20210915120005 72 0 0.0 0.0 0.00 0.00 0.00 63 1019.0
20210915114505 14 0 0.0 0.0 0.00 0.00 0.00 28 5172.5
20210915113005 73 0 0.0 0.0 0.00 0.00 0.00 60 1018.0